Time;durP1;ratioP1;P1;durP2;ratioP2;P2;SDS_P1;SDS_P2;PMS_P1;PMS_P2;Temp;Humidity;BMP_temperature;BMP_pressure;BME280_temperature;BME280_humidity;BME280_pressure;Samples;Min_cycle;Max_cycle;Signal;HPM_P1;HPM_P2
2023/10/23 00:01:39;;;;;;;1.83;0.90;;;22.30;55.90;;;;;;5037469;28;20029;-71
2023/10/23 00:04:06;;;;;;;1.27;0.90;;;22.30;55.90;;;;;;5037223;28;20062;-71
2023/10/23 00:06:32;;;;;;;1.40;0.90;;;22.30;55.90;;;;;;5038046;28;20030;-70
2023/10/23 00:08:57;;;;;;;1.75;0.80;;;22.30;55.90;;;;;;5039168;28;20032;-71
2023/10/23 00:11:28;;;;;;;1.52;0.80;;;22.30;55.90;;;;;;5039366;28;20033;-71
2023/10/23 00:13:55;;;;;;;1.45;0.90;;;22.30;55.90;;;;;;5037472;28;20362;-69
2023/10/23 00:16:21;;;;;;;1.30;0.82;;;22.30;55.90;;;;;;5038502;28;20550;-69
2023/10/23 00:18:48;;;;;;;1.20;0.80;;;22.30;55.90;;;;;;5036155;28;20389;-69
2023/10/23 00:21:14;;;;;;;1.52;0.95;;;22.30;56.00;;;;;;5038620;28;20021;-69
2023/10/23 00:23:40;;;;;;;1.15;0.80;;;22.30;56.00;;;;;;5039364;28;20514;-69
2023/10/23 00:26:06;;;;;;;1.73;0.85;;;22.20;55.90;;;;;;5038254;28;20128;-69
2023/10/23 00:28:32;;;;;;;1.98;0.80;;;22.20;55.90;;;;;;5039064;28;20048;-69
2023/10/23 00:30:58;;;;;;;1.02;0.70;;;22.20;55.90;;;;;;5037366;28;20028;-69
2023/10/23 00:33:24;;;;;;;1.52;0.80;;;22.20;55.90;;;;;;5038584;28;20030;-69
2023/10/23 00:35:50;;;;;;;1.20;0.73;;;22.20;55.90;;;;;;5038342;28;20037;-69
2023/10/23 00:38:15;;;;;;;1.35;0.80;;;22.20;55.90;;;;;;5035978;28;20056;-69
2023/10/23 00:40:41;;;;;;;1.10;0.70;;;22.20;55.90;;;;;;5038617;28;20580;-69
2023/10/23 00:43:16;;;;;;;1.27;0.80;;;22.20;56.00;;;;;;5039221;28;20030;-69
2023/10/23 00:45:52;;;;;;;1.15;0.80;;;22.20;56.00;;;;;;5038705;28;20392;-70
2023/10/23 00:48:20;;;;;;;1.10;0.80;;;22.20;56.00;;;;;;5038101;28;20444;-69
2023/10/23 00:50:48;;;;;;;1.15;0.70;;;22.20;56.00;;;;;;5039002;28;20497;-70
2023/10/23 00:53:14;;;;;;;1.50;0.80;;;22.10;55.90;;;;;;5036230;28;20041;-69
2023/10/23 00:55:40;;;;;;;1.48;0.90;;;22.20;56.00;;;;;;5037719;28;20550;-69
2023/10/23 00:58:06;;;;;;;1.25;0.80;;;22.20;56.00;;;;;;5038354;28;20030;-70
2023/10/23 01:00:33;;;;;;;1.27;0.85;;;22.20;56.00;;;;;;5036487;28;20026;-71
2023/10/23 01:03:00;;;;;;;1.42;0.85;;;22.10;56.00;;;;;;5037175;28;20029;-71
2023/10/23 01:05:25;;;;;;;1.90;0.80;;;22.10;56.00;;;;;;5039197;28;20017;-70
2023/10/23 01:07:51;;;;;;;1.33;0.80;;;22.10;56.00;;;;;;5036522;28;20911;-70
2023/10/23 01:10:17;;;;;;;1.52;0.85;;;22.10;56.00;;;;;;5038418;28;20059;-70
2023/10/23 01:12:42;;;;;;;1.20;0.82;;;22.10;56.00;;;;;;5039483;28;20105;-70
2023/10/23 01:15:08;;;;;;;1.52;0.90;;;22.10;56.00;;;;;;5036533;28;20436;-70
2023/10/23 01:17:34;;;;;;;1.52;0.90;;;22.10;56.00;;;;;;5037737;28;20029;-70
2023/10/23 01:19:59;;;;;;;1.40;0.80;;;22.10;56.00;;;;;;5038360;28;20039;-70
2023/10/23 01:22:25;;;;;;;1.02;0.70;;;22.10;56.00;;;;;;5035687;28;20044;-70
2023/10/23 01:24:52;;;;;;;1.10;0.80;;;22.10;56.00;;;;;;5038333;28;20024;-70
2023/10/23 01:27:17;;;;;;;1.23;0.68;;;22.10;56.00;;;;;;5040362;28;20026;-69
2023/10/23 01:29:43;;;;;;;1.80;0.90;;;22.10;56.00;;;;;;5040621;28;20543;-70
2023/10/23 01:32:10;;;;;;;1.02;0.75;;;22.10;56.00;;;;;;5037828;28;20025;-70
2023/10/23 01:34:35;;;;;;;1.38;0.80;;;22.00;55.90;;;;;;5040665;28;20433;-70
2023/10/23 01:37:01;;;;;;;2.00;0.90;;;22.00;55.90;;;;;;5041160;28;20061;-70
2023/10/23 01:39:26;;;;;;;1.33;0.80;;;22.10;56.00;;;;;;5041531;28;20481;-70
2023/10/23 01:41:52;;;;;;;1.13;0.70;;;22.00;55.90;;;;;;5040281;28;20107;-70
2023/10/23 01:44:18;;;;;;;1.63;0.90;;;22.00;56.00;;;;;;5040873;28;20128;-70
2023/10/23 01:46:43;;;;;;;1.00;0.80;;;22.00;55.90;;;;;;5042246;28;20445;-70
2023/10/23 01:49:09;;;;;;;0.93;0.80;;;22.00;56.00;;;;;;5039820;28;20025;-70
2023/10/23 01:51:35;;;;;;;1.38;0.93;;;22.00;56.00;;;;;;5041844;28;20495;-70
2023/10/23 01:54:01;;;;;;;1.55;0.80;;;22.00;56.00;;;;;;5047442;28;20143;-70
2023/10/23 01:56:26;;;;;;;1.50;0.90;;;22.00;56.00;;;;;;5039042;28;20045;-70
2023/10/23 01:58:52;;;;;;;2.03;0.70;;;22.00;56.00;;;;;;5041356;28;20035;-71
2023/10/23 02:01:20;;;;;;;1.35;0.90;;;22.00;56.00;;;;;;5039030;28;20512;-71
2023/10/23 02:03:46;;;;;;;1.50;1.05;;;22.00;56.00;;;;;;5042076;28;20493;-70
2023/10/23 02:06:11;;;;;;;1.33;0.85;;;22.00;56.00;;;;;;5042941;28;20060;-71
2023/10/23 02:08:37;;;;;;;1.67;0.80;;;22.00;56.00;;;;;;5039094;28;20802;-71
2023/10/23 02:11:03;;;;;;;1.30;0.80;;;21.90;56.00;;;;;;5040506;28;20026;-70
2023/10/23 02:13:28;;;;;;;1.67;1.00;;;21.90;56.50;;;;;;5040639;28;20513;-70
2023/10/23 02:15:54;;;;;;;0.82;0.70;;;21.90;56.00;;;;;;5040247;28;20032;-68
2023/10/23 02:18:19;;;;;;;1.20;0.80;;;21.90;56.00;;;;;;5040693;28;20037;-68
2023/10/23 02:20:45;;;;;;;1.52;0.80;;;22.00;56.00;;;;;;5039653;28;20108;-68
2023/10/23 02:23:11;;;;;;;1.10;0.75;;;21.90;56.00;;;;;;5037341;28;20017;-67
2023/10/23 02:25:36;;;;;;;1.60;0.95;;;21.90;56.00;;;;;;5041499;28;20025;-68
2023/10/23 02:28:03;;;;;;;1.50;0.90;;;21.90;56.00;;;;;;5039340;28;20504;-68
2023/10/23 02:30:28;;;;;;;1.45;0.75;;;21.90;56.00;;;;;;5041289;28;20488;-68
2023/10/23 02:32:54;;;;;;;1.30;0.80;;;21.90;55.90;;;;;;5039524;28;20022;-68
2023/10/23 02:35:20;;;;;;;1.77;0.93;;;21.90;55.90;;;;;;5040723;28;20104;-73
2023/10/23 02:37:45;;;;;;;1.48;0.80;;;21.90;55.90;;;;;;5038440;28;20021;-72
2023/10/23 02:40:12;;;;;;;1.05;0.70;;;21.90;55.90;;;;;;5039692;28;20117;-72
2023/10/23 02:42:37;;;;;;;0.85;0.80;;;21.90;55.90;;;;;;5041928;28;20036;-72
2023/10/23 02:45:03;;;;;;;1.65;0.85;;;21.90;55.90;;;;;;5041111;28;20029;-72
2023/10/23 02:47:29;;;;;;;1.20;0.73;;;21.90;55.90;;;;;;5039573;28;20489;-72
2023/10/23 02:49:54;;;;;;;1.05;0.80;;;21.90;55.90;;;;;;5041084;28;20033;-72
2023/10/23 02:52:20;;;;;;;2.10;1.02;;;21.80;55.90;;;;;;5038769;28;20485;-72
2023/10/23 02:54:46;;;;;;;1.08;0.80;;;21.90;55.90;;;;;;5040405;28;20117;-72
2023/10/23 02:57:12;;;;;;;1.10;0.80;;;21.80;55.90;;;;;;5072255;28;20139;-73
2023/10/23 02:59:37;;;;;;;1.10;0.80;;;21.80;55.80;;;;;;5038827;28;20030;-73
2023/10/23 03:02:03;;;;;;;1.30;0.80;;;21.80;55.80;;;;;;5037852;28;20030;-72
2023/10/23 03:04:29;;;;;;;0.88;0.70;;;21.80;55.80;;;;;;5040291;28;20376;-68
2023/10/23 03:06:55;;;;;;;1.10;0.77;;;21.80;55.80;;;;;;5039083;28;20032;-67
2023/10/23 03:09:20;;;;;;;0.90;0.75;;;21.80;55.80;;;;;;5037155;28;20025;-68
2023/10/23 03:11:46;;;;;;;1.05;0.80;;;21.80;55.80;;;;;;5039391;28;20028;-68
2023/10/23 03:14:11;;;;;;;1.10;0.70;;;21.90;55.90;;;;;;5041013;28;20031;-68
2023/10/23 03:16:37;;;;;;;1.35;0.80;;;21.80;55.80;;;;;;5039761;28;20056;-67
2023/10/23 03:19:02;;;;;;;1.25;0.80;;;21.80;55.80;;;;;;5041401;28;20476;-68
2023/10/23 03:21:29;;;;;;;1.67;0.90;;;21.80;55.80;;;;;;5040340;28;20040;-67
2023/10/23 03:23:55;;;;;;;1.30;0.80;;;21.80;55.80;;;;;;5037922;28;20040;-72
2023/10/23 03:26:20;;;;;;;1.63;0.90;;;21.80;55.80;;;;;;5038456;28;20029;-68
2023/10/23 03:28:46;;;;;;;1.02;0.80;;;21.80;55.80;;;;;;5038854;28;20029;-69
2023/10/23 03:31:12;;;;;;;1.35;0.82;;;21.80;55.80;;;;;;5040229;28;20040;-68
2023/10/23 03:33:37;;;;;;;1.10;0.80;;;21.80;55.80;;;;;;5039006;28;20595;-67
2023/10/23 03:36:03;;;;;;;1.48;0.80;;;21.80;55.90;;;;;;5039880;28;20037;-68
2023/10/23 03:38:29;;;;;;;1.30;0.88;;;21.80;55.80;;;;;;5037400;28;20060;-68
2023/10/23 03:40:59;;;;;;;0.85;0.70;;;21.80;55.90;;;;;;5038149;28;20040;-68
2023/10/23 03:43:25;;;;;;;1.38;0.90;;;21.70;55.80;;;;;;5038464;28;20025;-68
2023/10/23 03:45:50;;;;;;;1.23;0.90;;;21.80;55.80;;;;;;5038531;28;20029;-69
2023/10/23 03:48:16;;;;;;;1.70;0.93;;;21.80;55.90;;;;;;5052502;28;20017;-68
2023/10/23 03:50:41;;;;;;;1.13;0.90;;;21.70;55.80;;;;;;5038337;28;20055;-69
2023/10/23 03:53:07;;;;;;;1.45;0.95;;;21.70;55.80;;;;;;5039172;28;20037;-69
2023/10/23 03:55:37;;;;;;;0.85;0.70;;;21.70;55.80;;;;;;5038431;28;20492;-69
2023/10/23 03:58:02;;;;;;;1.20;0.68;;;21.70;55.80;;;;;;5034443;28;20489;-69
2023/10/23 04:00:29;;;;;;;0.95;0.70;;;21.70;55.90;;;;;;5038133;28;20028;-69
2023/10/23 04:02:55;;;;;;;1.23;0.90;;;21.70;55.80;;;;;;5039250;28;20032;-69
2023/10/23 04:05:20;;;;;;;1.52;1.00;;;21.70;55.90;;;;;;5038346;28;20436;-69
2023/10/23 04:07:46;;;;;;;1.52;0.82;;;21.70;55.80;;;;;;5039460;28;20029;-69
2023/10/23 04:10:13;;;;;;;1.27;0.80;;;21.70;56.00;;;;;;5035886;28;20025;-69
2023/10/23 04:12:39;;;;;;;1.48;0.90;;;21.70;55.90;;;;;;5037048;28;20029;-69
2023/10/23 04:15:05;;;;;;;1.00;0.80;;;21.70;55.90;;;;;;5036891;28;20108;-68
2023/10/23 04:17:31;;;;;;;1.35;0.90;;;21.70;55.90;;;;;;5039399;28;20433;-68
2023/10/23 04:19:57;;;;;;;0.93;0.70;;;21.70;56.00;;;;;;5039080;28;20084;-68
2023/10/23 04:22:22;;;;;;;1.05;0.70;;;21.70;56.00;;;;;;5039605;28;20025;-68
2023/10/23 04:24:48;;;;;;;1.30;0.80;;;21.70;56.10;;;;;;5038257;28;20044;-68
2023/10/23 04:27:14;;;;;;;1.23;0.80;;;21.70;56.10;;;;;;5036301;28;20032;-67
2023/10/23 04:29:40;;;;;;;1.23;0.77;;;21.70;56.10;;;;;;5038741;28;20524;-68
2023/10/23 04:32:06;;;;;;;1.60;0.90;;;21.60;56.10;;;;;;5039012;28;20108;-67
2023/10/23 04:34:31;;;;;;;0.98;0.77;;;21.60;56.10;;;;;;5038809;28;20434;-68
2023/10/23 04:36:57;;;;;;;1.85;0.80;;;21.70;56.10;;;;;;5037577;28;20057;-69
2023/10/23 04:39:22;;;;;;;1.73;1.25;;;21.60;56.10;;;;;;5035420;28;20064;-68
2023/10/23 04:41:48;;;;;;;1.20;0.90;;;21.60;56.10;;;;;;5035955;28;20528;-68
2023/10/23 04:44:14;;;;;;;1.85;0.95;;;21.60;56.10;;;;;;5037663;28;20100;-68
2023/10/23 04:46:39;;;;;;;1.02;0.70;;;21.60;56.10;;;;;;5038422;28;20167;-68
2023/10/23 04:49:05;;;;;;;1.10;0.70;;;21.60;56.10;;;;;;5038661;28;20067;-68
2023/10/23 04:51:32;;;;;;;1.30;0.80;;;21.60;56.10;;;;;;5039397;28;20107;-67
2023/10/23 04:53:58;;;;;;;1.30;0.82;;;21.60;56.10;;;;;;5038967;28;20033;-70
2023/10/23 04:56:23;;;;;;;0.82;0.70;;;21.60;56.20;;;;;;5038566;28;20025;-67
2023/10/23 04:58:49;;;;;;;1.40;0.80;;;21.60;56.20;;;;;;5037353;28;20030;-67
2023/10/23 05:01:18;;;;;;;0.85;0.70;;;21.60;56.20;;;;;;5042573;28;20393;-68
2023/10/23 05:03:44;;;;;;;1.27;0.90;;;21.60;56.20;;;;;;5041386;28;20499;-67
2023/10/23 05:06:09;;;;;;;1.25;0.80;;;21.60;56.20;;;;;;5043756;28;20231;-67
2023/10/23 05:08:35;;;;;;;1.83;0.85;;;21.60;56.30;;;;;;5040527;28;20047;-68
2023/10/23 05:11:10;;;;;;;1.08;0.77;;;21.60;56.30;;;;;;5043193;28;20079;-68
2023/10/23 05:13:36;;;;;;;1.23;0.80;;;21.60;56.30;;;;;;5040920;28;20466;-67
2023/10/23 05:16:05;;;;;;;2.22;0.90;;;21.60;56.30;;;;;;5042089;28;20063;-68
2023/10/23 05:18:32;;;;;;;1.10;0.80;;;21.60;56.30;;;;;;5040788;28;20033;-68
2023/10/23 05:20:58;;;;;;;1.95;0.70;;;21.50;56.20;;;;;;5039458;28;20033;-68
2023/10/23 05:23:24;;;;;;;1.40;0.88;;;21.60;56.30;;;;;;5040689;28;20039;-68
2023/10/23 05:25:50;;;;;;;1.73;0.70;;;21.60;56.30;;;;;;5038067;28;20029;-69
2023/10/23 05:28:15;;;;;;;1.85;0.95;;;21.60;56.30;;;;;;5040944;28;20063;-69
2023/10/23 05:30:41;;;;;;;1.65;0.90;;;21.60;56.30;;;;;;5042650;28;20147;-68
2023/10/23 05:33:06;;;;;;;1.77;0.90;;;21.60;56.30;;;;;;5042098;28;20021;-68
2023/10/23 05:35:32;;;;;;;1.90;0.80;;;21.60;56.30;;;;;;5041100;28;20029;-68
2023/10/23 05:37:57;;;;;;;2.20;0.90;;;21.60;56.30;;;;;;5039888;28;20446;-69
2023/10/23 05:40:23;;;;;;;1.40;0.90;;;21.60;56.30;;;;;;5040380;28;20068;-68
2023/10/23 05:42:49;;;;;;;1.45;0.80;;;21.60;56.30;;;;;;5039499;28;20036;-68
2023/10/23 05:45:14;;;;;;;1.70;0.95;;;21.60;56.30;;;;;;5043104;28;20073;-69
2023/10/23 05:47:40;;;;;;;1.60;1.00;;;21.60;56.30;;;;;;5042733;28;20032;-69
2023/10/23 05:50:06;;;;;;;2.25;1.00;;;21.60;56.30;;;;;;5040120;28;20025;-69
2023/10/23 05:52:32;;;;;;;2.00;1.08;;;21.50;56.20;;;;;;5040296;28;20027;-69
2023/10/23 05:54:57;;;;;;;1.85;0.93;;;21.60;56.30;;;;;;5037246;28;20397;-69
2023/10/23 05:57:23;;;;;;;3.50;1.00;;;21.50;56.30;;;;;;5041815;28;20065;-69
2023/10/23 05:59:48;;;;;;;1.98;1.00;;;21.60;56.30;;;;;;5041613;28;20107;-69
2023/10/23 06:02:15;;;;;;;3.78;1.35;;;21.50;56.30;;;;;;5041367;28;20029;-69
2023/10/23 06:04:44;;;;;;;1.70;0.90;;;21.50;56.30;;;;;;5041916;28;20484;-69
2023/10/23 06:07:09;;;;;;;2.05;0.82;;;21.50;56.30;;;;;;5039202;28;20020;-70
2023/10/23 06:09:35;;;;;;;1.63;0.90;;;21.50;56.30;;;;;;5039254;28;20531;-69
2023/10/23 06:12:00;;;;;;;1.92;0.93;;;21.50;56.30;;;;;;5040585;28;20543;-70
2023/10/23 06:14:26;;;;;;;2.38;1.08;;;21.50;56.20;;;;;;5039732;28;20032;-69
2023/10/23 06:16:51;;;;;;;2.60;1.10;;;21.50;56.30;;;;;;5040338;28;20540;-69
2023/10/23 06:19:17;;;;;;;2.67;1.17;;;21.50;56.20;;;;;;5038244;28;20025;-69
2023/10/23 06:21:43;;;;;;;1.42;0.90;;;21.60;56.30;;;;;;5038585;28;20134;-69
2023/10/23 06:24:08;;;;;;;2.63;1.05;;;21.50;56.30;;;;;;5038880;28;20032;-69
2023/10/23 06:26:34;;;;;;;2.42;1.00;;;21.50;56.20;;;;;;5039555;28;20491;-69
2023/10/23 06:29:00;;;;;;;1.73;1.00;;;21.50;56.20;;;;;;5040932;28;20021;-69
2023/10/23 06:31:25;;;;;;;2.50;1.00;;;21.50;56.20;;;;;;5041667;28;20462;-70
2023/10/23 06:33:54;;;;;;;1.80;1.05;;;21.50;56.20;;;;;;5040482;28;20366;-70
2023/10/23 06:36:19;;;;;;;1.95;1.00;;;21.50;56.20;;;;;;5039384;28;20036;-70
2023/10/23 06:38:45;;;;;;;2.17;1.00;;;21.50;56.20;;;;;;5039486;28;20037;-70
2023/10/23 06:41:11;;;;;;;2.50;1.20;;;21.50;56.30;;;;;;5037638;28;20021;-70
2023/10/23 06:43:39;;;;;;;2.97;0.98;;;21.50;56.30;;;;;;5039691;28;20036;-69
2023/10/23 06:46:06;;;;;;;2.37;0.90;;;21.50;56.30;;;;;;5040700;28;20033;-69
2023/10/23 06:48:31;;;;;;;1.80;1.10;;;21.50;56.20;;;;;;5039387;28;20275;-69
2023/10/23 06:50:57;;;;;;;2.35;1.20;;;21.50;56.20;;;;;;5040379;28;20033;-69
2023/10/23 06:53:23;;;;;;;1.70;1.00;;;21.50;56.20;;;;;;5039361;28;20083;-69
2023/10/23 06:55:49;;;;;;;2.10;1.02;;;21.50;56.20;;;;;;5038564;28;20418;-71
2023/10/23 06:58:15;;;;;;;2.83;1.20;;;21.50;56.20;;;;;;5037531;28;20112;-71
2023/10/23 07:00:41;;;;;;;2.53;1.10;;;21.50;56.20;;;;;;5039523;28;20116;-71
2023/10/23 07:03:07;;;;;;;1.35;1.00;;;21.50;56.20;;;;;;5040648;28;20032;-70
2023/10/23 07:05:33;;;;;;;2.30;1.10;;;21.50;56.20;;;;;;5038761;28;20013;-71
2023/10/23 07:07:58;;;;;;;2.20;1.00;;;21.50;56.20;;;;;;5041117;28;20038;-71
2023/10/23 07:10:24;;;;;;;2.47;1.10;;;21.40;56.20;;;;;;5037458;28;20492;-71
2023/10/23 07:12:49;;;;;;;2.20;1.00;;;21.40;56.20;;;;;;5038570;28;20037;-71
2023/10/23 07:15:15;;;;;;;2.17;1.00;;;21.40;56.20;;;;;;5039982;28;20057;-71
2023/10/23 07:17:40;;;;;;;2.17;1.00;;;21.40;56.20;;;;;;5038727;28;20048;-71
2023/10/23 07:20:07;;;;;;;2.72;1.23;;;21.50;56.20;;;;;;5038718;28;20099;-71
2023/10/23 07:22:36;;;;;;;3.25;1.02;;;21.40;56.20;;;;;;5038917;28;20380;-71
2023/10/23 07:25:02;;;;;;;;;;;21.40;56.20;;;;;;5037536;28;20033;-70
2023/10/23 07:27:28;;;;;;;1.73;1.00;;;21.40;56.30;;;;;;5038587;28;19909;-71
2023/10/23 07:29:54;;;;;;;1.67;1.10;;;21.40;56.30;;;;;;5037842;28;20440;-71
2023/10/23 07:32:19;;;;;;;1.88;1.02;;;21.40;56.20;;;;;;5040094;28;20028;-71
2023/10/23 07:34:45;;;;;;;2.53;1.00;;;21.40;56.20;;;;;;5038016;28;20052;-70
2023/10/23 07:37:17;;;;;;;1.30;0.90;;;21.40;56.20;;;;;;5038937;28;20136;-71
2023/10/23 07:39:47;;;;;;;2.22;0.82;;;21.40;56.20;;;;;;5044972;28;20036;-71
2023/10/23 07:42:16;;;;;;;1.35;0.90;;;21.40;56.20;;;;;;5038306;28;20025;-71
2023/10/23 07:44:45;;;;;;;1.55;0.98;;;21.40;56.20;;;;;;5037514;28;20529;-71
2023/10/23 07:47:11;;;;;;;2.22;1.10;;;21.40;56.30;;;;;;5038943;28;20033;-71
2023/10/23 07:49:37;;;;;;;2.15;1.13;;;21.40;56.30;;;;;;5038007;28;20392;-71
2023/10/23 07:52:03;;;;;;;2.42;1.30;;;21.40;56.20;;;;;;5038549;28;20025;-71
2023/10/23 07:54:31;;;;;;;2.00;1.00;;;21.40;56.20;;;;;;5037522;28;20029;-71
2023/10/23 07:56:57;;;;;;;2.00;1.05;;;21.40;56.30;;;;;;5037930;28;20459;-71
2023/10/23 07:59:23;;;;;;;2.05;1.10;;;21.30;56.20;;;;;;5039681;28;20036;-71
2023/10/23 08:01:50;;;;;;;2.45;1.20;;;21.30;56.20;;;;;;5036730;28;20032;-71
2023/10/23 08:04:16;;;;;;;1.40;0.93;;;21.30;56.20;;;;;;5036936;28;20060;-71
2023/10/23 08:06:42;;;;;;;2.67;1.20;;;21.30;56.20;;;;;;5039361;28;20319;-71
2023/10/23 08:09:08;;;;;;;2.05;1.15;;;21.30;56.20;;;;;;5038506;28;20029;-71
2023/10/23 08:11:33;;;;;;;1.88;0.98;;;21.30;56.20;;;;;;5035739;28;20037;-71
2023/10/23 08:14:00;;;;;;;2.40;1.30;;;21.30;56.30;;;;;;5037173;28;20033;-71
2023/10/23 08:16:25;;;;;;;1.88;1.00;;;21.30;56.20;;;;;;5037326;28;20396;-71
2023/10/23 08:18:51;;;;;;;2.28;1.30;;;21.30;56.20;;;;;;5037188;28;20032;-71
2023/10/23 08:21:16;;;;;;;1.70;1.02;;;21.30;56.20;;;;;;5037702;28;20030;-71
2023/10/23 08:23:46;;;;;;;1.98;1.10;;;21.30;56.30;;;;;;5037353;28;20025;-70
2023/10/23 08:26:12;;;;;;;;;;;21.30;56.30;;;;;;5039020;28;20060;-71
2023/10/23 08:28:38;;;;;;;1.50;0.90;;;21.30;56.30;;;;;;5037230;28;19909;-72
2023/10/23 08:31:03;;;;;;;1.83;1.08;;;21.30;56.20;;;;;;5037127;28;20107;-72
2023/10/23 08:33:29;;;;;;;2.55;1.10;;;21.30;56.20;;;;;;5037979;28;20136;-72
2023/10/23 08:35:55;;;;;;;1.52;0.93;;;21.30;56.30;;;;;;5042993;28;20060;-72
2023/10/23 08:38:20;;;;;;;2.03;1.05;;;21.30;56.30;;;;;;5043584;28;20029;-71
2023/10/23 08:40:47;;;;;;;1.58;1.00;;;21.30;56.20;;;;;;5042026;28;20423;-72
2023/10/23 08:43:13;;;;;;;2.05;1.20;;;21.30;56.30;;;;;;5041302;28;20033;-72
2023/10/23 08:45:41;;;;;;;1.60;1.00;;;21.30;56.30;;;;;;5040856;28;20052;-72
2023/10/23 08:48:07;;;;;;;1.45;0.90;;;21.30;56.30;;;;;;5042870;28;20554;-72
2023/10/23 08:50:34;;;;;;;1.60;1.00;;;21.30;56.20;;;;;;5041831;28;20041;-72
2023/10/23 08:53:07;;;;;;;1.45;1.00;;;21.30;56.30;;;;;;5040011;28;20559;-71
2023/10/23 08:55:33;;;;;;;1.52;0.90;;;21.30;56.20;;;;;;5041076;28;20068;-67
2023/10/23 08:58:03;;;;;;;1.75;1.08;;;21.30;56.30;;;;;;5042192;28;20025;-67
2023/10/23 09:00:29;;;;;;;1.77;0.93;;;21.30;56.30;;;;;;5074923;28;20025;-67
2023/10/23 09:02:58;;;;;;;1.88;0.90;;;21.30;56.20;;;;;;5043658;28;20202;-67
2023/10/23 09:05:24;;;;;;;2.43;1.00;;;21.30;56.20;;;;;;5039691;28;20388;-67
2023/10/23 09:07:49;;;;;;;1.85;1.08;;;21.30;56.30;;;;;;5040918;28;20252;-67
2023/10/23 09:10:15;;;;;;;2.30;1.30;;;21.30;56.30;;;;;;5040295;28;20468;-68
2023/10/23 09:12:41;;;;;;;1.42;0.93;;;21.30;56.30;;;;;;5040566;28;20059;-68
2023/10/23 09:15:24;;;;;;;1.70;1.00;;;21.30;56.20;;;;;;5042197;28;20032;-68
2023/10/23 09:17:50;;;;;;;1.77;1.00;;;21.20;56.20;;;;;;5042863;28;20022;-68
2023/10/23 09:20:16;;;;;;;2.20;1.23;;;21.30;56.30;;;;;;5042444;28;20126;-68
2023/10/23 09:22:47;;;;;;;1.77;1.10;;;21.20;56.20;;;;;;5041585;28;20469;-68
2023/10/23 09:25:17;;;;;;;2.05;1.10;;;21.30;56.30;;;;;;5042037;28;20018;-67
2023/10/23 09:27:42;;;;;;;;;;;21.30;56.30;;;;;;5040324;28;20029;-68
2023/10/23 09:30:09;;;;;;;1.40;0.95;;;21.20;56.20;;;;;;5042603;28;19909;-68
2023/10/23 09:32:37;;;;;;;1.58;0.90;;;21.20;56.20;;;;;;5040599;28;20047;-68
2023/10/23 09:35:08;;;;;;;2.75;1.00;;;21.20;56.20;;;;;;5043627;28;20029;-67
2023/10/23 09:37:35;;;;;;;1.52;1.00;;;21.20;56.20;;;;;;5040557;28;20502;-68
2023/10/23 09:40:09;;;;;;;2.20;1.10;;;21.20;56.30;;;;;;5039119;28;20064;-68
2023/10/23 09:42:35;;;;;;;2.05;0.98;;;21.20;56.30;;;;;;5039842;28;20029;-67
2023/10/23 09:45:03;;;;;;;1.80;1.00;;;21.20;56.30;;;;;;5042092;28;20029;-68
2023/10/23 09:47:29;;;;;;;1.90;1.00;;;21.20;56.30;;;;;;5041356;28;20027;-66
2023/10/23 09:49:55;;;;;;;2.05;1.10;;;21.20;56.30;;;;;;5042158;28;20017;-67
2023/10/23 09:52:25;;;;;;;2.13;1.20;;;21.20;56.30;;;;;;5041866;28;20396;-67
2023/10/23 09:55:04;;;;;;;2.08;1.10;;;21.20;56.30;;;;;;5039254;28;20040;-67
2023/10/23 09:57:44;;;;;;;1.65;1.00;;;21.20;56.30;;;;;;5039378;28;20026;-67
2023/10/23 10:00:15;;;;;;;1.63;1.02;;;21.20;56.30;;;;;;5038693;28;20045;-67
2023/10/23 10:02:45;;;;;;;1.17;0.80;;;21.20;56.30;;;;;;5037197;28;20025;-67
2023/10/23 10:05:19;;;;;;;1.10;0.90;;;21.20;56.30;;;;;;5040411;28;20025;-68
2023/10/23 10:08:03;;;;;;;1.50;0.90;;;21.20;56.30;;;;;;5040638;28;20030;-68
2023/10/23 10:10:30;;;;;;;1.80;0.95;;;21.20;56.30;;;;;;5038996;28;20051;-68
2023/10/23 10:12:56;;;;;;;1.65;1.00;;;21.20;56.30;;;;;;5038358;28;20373;-68
2023/10/23 10:15:23;;;;;;;1.90;1.00;;;21.20;56.40;;;;;;5041480;28;20037;-68
2023/10/23 10:17:49;;;;;;;1.85;1.00;;;21.20;56.30;;;;;;5038831;28;20048;-68
2023/10/23 10:20:19;;;;;;;1.90;1.20;;;21.20;56.30;;;;;;5037148;28;20483;-68
2023/10/23 10:22:48;;;;;;;1.98;1.00;;;21.20;56.30;;;;;;5042666;28;20544;-68
2023/10/23 10:25:15;;;;;;;1.73;1.05;;;21.20;56.30;;;;;;5041311;28;20025;-68
2023/10/23 10:27:41;;;;;;;1.38;0.90;;;21.20;56.30;;;;;;5041144;28;20025;-69
2023/10/23 10:30:45;;;;;;;0.90;0.80;;;21.20;56.30;;;;;;5037686;28;20834;-69
2023/10/23 10:33:29;;;;;;;1.65;1.00;;;21.20;56.30;;;;;;5041064;28;20025;-67
2023/10/23 10:36:04;;;;;;;2.22;1.08;;;21.20;56.30;;;;;;5040231;28;20093;-68
2023/10/23 10:38:32;;;;;;;1.48;0.85;;;21.20;56.30;;;;;;5039893;28;20025;-68
2023/10/23 10:41:03;;;;;;;1.65;1.00;;;21.20;56.30;;;;;;5037787;28;20029;-68
2023/10/23 10:43:33;;;;;;;1.40;0.90;;;21.20;56.30;;;;;;5038879;28;20033;-67
2023/10/23 10:46:12;;;;;;;1.48;0.98;;;21.20;56.30;;;;;;5038241;28;20385;-72
2023/10/23 10:48:49;;;;;;;1.48;1.00;;;21.20;56.30;;;;;;5040536;28;20029;-72
2023/10/23 10:51:21;;;;;;;1.35;0.80;;;21.20;56.30;;;;;;5038863;28;20090;-71
2023/10/23 10:53:48;;;;;;;1.88;1.10;;;21.20;56.30;;;;;;5039659;28;20033;-72
2023/10/23 10:56:14;;;;;;;1.58;1.00;;;21.20;56.30;;;;;;5038152;28;20062;-72
2023/10/23 10:58:43;;;;;;;1.35;0.90;;;21.20;56.30;;;;;;5039485;28;20025;-72
2023/10/23 11:01:10;;;;;;;1.50;1.00;;;21.20;56.30;;;;;;5038515;28;20149;-72
2023/10/23 11:03:41;;;;;;;1.30;0.90;;;21.20;56.30;;;;;;5041432;28;20433;-72
2023/10/23 11:06:07;;;;;;;1.45;1.00;;;21.20;56.30;;;;;;5039622;28;20040;-71
2023/10/23 11:08:34;;;;;;;1.23;0.90;;;21.20;56.30;;;;;;5054409;28;20029;-72
2023/10/23 11:11:06;;;;;;;1.55;0.90;;;21.20;56.30;;;;;;5038774;28;20501;-72
2023/10/23 11:13:35;;;;;;;1.33;0.95;;;21.20;56.30;;;;;;5039539;28;20512;-72
2023/10/23 11:16:01;;;;;;;1.55;1.00;;;21.20;56.30;;;;;;5038279;28;20029;-72
2023/10/23 11:18:30;;;;;;;2.33;1.00;;;21.20;56.30;;;;;;5041015;28;20051;-72
2023/10/23 11:20:58;;;;;;;1.67;1.00;;;21.20;56.30;;;;;;5040062;28;20542;-72
2023/10/23 11:23:23;;;;;;;1.45;1.00;;;21.20;56.30;;;;;;5039211;28;20108;-71
2023/10/23 11:25:50;;;;;;;1.65;0.93;;;21.20;56.30;;;;;;5041074;28;20601;-72
2023/10/23 11:28:18;;;;;;;0.93;0.77;;;21.20;56.30;;;;;;5038997;28;20489;-72
2023/10/23 11:30:46;;;;;;;1.60;1.00;;;21.20;56.30;;;;;;5039252;28;20048;-71
2023/10/23 11:33:13;;;;;;;1.27;0.85;;;21.20;56.20;;;;;;5038834;28;20072;-72
2023/10/23 11:35:40;;;;;;;1.67;1.10;;;21.20;56.30;;;;;;5038175;28;20377;-72
2023/10/23 11:38:12;;;;;;;1.60;0.95;;;21.20;56.30;;;;;;5040081;28;20041;-72
2023/10/23 11:40:37;;;;;;;1.30;0.90;;;21.20;56.30;;;;;;5037695;28;20025;-71
2023/10/23 11:43:03;;;;;;;1.42;0.90;;;21.20;56.30;;;;;;5038201;28;20017;-72
2023/10/23 11:45:29;;;;;;;1.42;1.00;;;21.20;56.30;;;;;;5037016;28;20029;-72
2023/10/23 11:47:55;;;;;;;0.88;0.80;;;21.20;56.30;;;;;;5038566;28;20021;-72
2023/10/23 11:50:21;;;;;;;1.33;0.80;;;21.20;56.30;;;;;;5039343;28;20022;-72
2023/10/23 11:52:48;;;;;;;1.58;0.98;;;21.20;56.30;;;;;;5037872;28;20451;-72
2023/10/23 11:55:18;;;;;;;1.65;0.98;;;21.20;56.30;;;;;;5036808;28;20032;-72
2023/10/23 11:57:50;;;;;;;1.38;0.90;;;21.20;56.80;;;;;;5036191;28;20082;-72
2023/10/23 12:00:18;;;;;;;1.55;1.00;;;21.20;56.30;;;;;;5038472;28;20017;-71
2023/10/23 12:02:46;;;;;;;1.17;0.90;;;21.20;56.30;;;;;;5037759;28;20033;-71
2023/10/23 12:05:17;;;;;;;1.20;0.93;;;21.20;56.30;;;;;;5053198;28;20025;-72
2023/10/23 12:07:47;;;;;;;1.52;1.02;;;21.20;56.30;;;;;;5038658;28;20030;-71
2023/10/23 12:10:15;;;;;;;1.45;0.85;;;21.20;56.80;;;;;;5039074;28;20575;-72
2023/10/23 12:12:43;;;;;;;1.60;0.98;;;21.20;56.20;;;;;;5069529;28;20308;-71
2023/10/23 12:15:10;;;;;;;1.15;0.88;;;21.20;56.70;;;;;;5037828;28;20022;-71
2023/10/23 12:17:37;;;;;;;1.95;1.10;;;21.20;56.20;;;;;;5036053;28;20021;-71
2023/10/23 12:20:07;;;;;;;1.50;1.10;;;21.20;56.20;;;;;;5037929;28;20032;-72
2023/10/23 12:22:44;;;;;;;1.55;0.90;;;21.20;56.20;;;;;;5044798;28;20889;-72
2023/10/23 12:25:09;;;;;;;1.48;1.00;;;21.20;56.20;;;;;;5037514;28;20419;-72
2023/10/23 12:27:36;;;;;;;1.70;0.90;;;21.20;56.20;;;;;;5038113;28;20108;-71
2023/10/23 12:30:04;;;;;;;1.55;1.00;;;21.20;56.20;;;;;;5037440;28;20025;-72
2023/10/23 12:32:30;;;;;;;1.50;0.95;;;21.20;56.20;;;;;;5037845;28;20051;-72
2023/10/23 12:34:59;;;;;;;2.13;1.13;;;21.20;56.20;;;;;;5036673;28;20034;-72
2023/10/23 12:37:32;;;;;;;1.92;1.05;;;21.20;56.20;;;;;;5039306;28;20602;-71
2023/10/23 12:40:00;;;;;;;1.42;0.90;;;21.20;56.20;;;;;;5038138;28;20029;-71
2023/10/23 12:42:28;;;;;;;1.00;0.80;;;21.20;56.20;;;;;;5037216;28;20076;-71
2023/10/23 12:44:56;;;;;;;1.55;0.90;;;21.20;56.20;;;;;;5037845;28;20075;-71
2023/10/23 12:47:22;;;;;;;1.27;0.80;;;21.20;56.20;;;;;;5039850;28;20021;-72